createdAt,value
2017-04-09T00:00:11.180Z,26.3
2017-04-09T00:01:10.407Z,26.3
2017-04-09T00:02:10.304Z,26.3
2017-04-09T00:03:11.410Z,26.3
2017-04-09T00:04:10.289Z,26.3
2017-04-09T00:05:11.445Z,26.3
2017-04-09T00:06:11.450Z,26.3
2017-04-09T00:07:10.910Z,26.3
2017-04-09T00:08:11.518Z,26.3
2017-04-09T00:09:10.459Z,26.3
2017-04-09T00:10:10.601Z,26.3
2017-04-09T00:11:11.590Z,26.3
2017-04-09T00:12:10.589Z,26.3
2017-04-09T00:13:11.976Z,26.3
2017-04-09T00:14:10.675Z,26.3
2017-04-09T00:15:11.845Z,26.3
2017-04-09T00:16:11.865Z,26.3
2017-04-09T00:17:10.832Z,26.3
2017-04-09T00:18:12.006Z,26.3
2017-04-09T00:19:12.459Z,26.3
2017-04-09T00:20:12.167Z,26.3
2017-04-09T00:21:12.180Z,26.3
2017-04-09T00:22:12.268Z,26.3
2017-04-09T00:23:12.342Z,26.3
2017-04-09T00:24:11.384Z,26.3
2017-04-09T00:25:11.716Z,26.3
2017-04-09T00:26:11.441Z,26.3
2017-04-09T00:27:11.531Z,26.3
2017-04-09T00:28:12.667Z,26.3
2017-04-09T00:29:11.626Z,26.3
2017-04-09T00:30:12.839Z,26.3
2017-04-09T00:31:12.162Z,26.3
2017-04-09T00:32:11.761Z,26.3
2017-04-09T00:33:11.936Z,26.3
2017-04-09T00:34:13.083Z,26.3
2017-04-09T00:35:13.160Z,26.3
2017-04-09T00:36:12.198Z,26.3
2017-04-09T00:37:13.459Z,26.3
2017-04-09T00:38:12.218Z,26.3
2017-04-09T00:39:13.426Z,26.3
2017-04-09T00:40:12.278Z,26.3
2017-04-09T00:41:13.460Z,26.3
2017-04-09T00:42:13.548Z,26.3
2017-04-09T00:43:12.858Z,26.3
2017-04-09T00:44:12.560Z,26.3
2017-04-09T00:45:13.670Z,26.3
2017-04-09T00:46:13.734Z,26.3
2017-04-09T00:47:13.852Z,26.3
2017-04-09T00:48:13.911Z,26.3
2017-04-09T00:49:14.245Z,26.3
2017-04-09T00:50:12.897Z,26.3
2017-04-09T00:51:12.924Z,26.3
2017-04-09T00:52:14.167Z,26.3
2017-04-09T00:53:13.021Z,26.3
2017-04-09T00:54:14.294Z,26.3
2017-04-09T00:55:13.601Z,26.3
2017-04-09T00:56:14.290Z,26.3
2017-04-09T00:57:14.351Z,26.3
2017-04-09T00:58:13.373Z,26.3
2017-04-09T00:59:14.376Z,26.3
2017-04-09T01:00:13.394Z,26.3
2017-04-09T01:01:14.716Z,26.3
2017-04-09T01:02:13.569Z,26.3
2017-04-09T01:03:14.674Z,26.3
2017-04-09T01:04:14.721Z,26.3
2017-04-09T01:05:14.769Z,26.3
2017-04-09T01:06:13.827Z,26.3
2017-04-09T01:07:15.193Z,26.3
2017-04-09T01:08:13.988Z,26.3
2017-04-09T01:09:15.017Z,26.3
2017-04-09T01:10:14.084Z,26.3
2017-04-09T01:11:14.134Z,26.3
2017-04-09T01:12:14.162Z,26.3
2017-04-09T01:13:15.410Z,26.3
2017-04-09T01:14:14.110Z,26.3
2017-04-09T01:15:15.246Z,26.3
2017-04-09T01:16:14.231Z,26.3
2017-04-09T01:17:14.160Z,26.3
2017-04-09T01:18:14.166Z,26.3
2017-04-09T01:19:14.482Z,26.3
2017-04-09T01:20:15.380Z,26.3
2017-04-09T01:21:15.398Z,26.3
2017-04-09T01:22:15.398Z,26.3
2017-04-09T01:23:15.518Z,26.3
2017-04-09T01:24:14.478Z,26.3
2017-04-09T01:25:14.714Z,26.3
2017-04-09T01:26:14.530Z,26.3
2017-04-09T01:27:14.617Z,26.3
2017-04-09T01:28:15.859Z,26.3
2017-04-09T01:29:14.875Z,26.3
2017-04-09T01:30:14.971Z,26.3
2017-04-09T01:31:16.285Z,26.3
2017-04-09T01:32:15.965Z,26.3
2017-04-09T01:33:15.993Z,26.3
2017-04-09T01:34:15.048Z,26.3
2017-04-09T01:35:16.168Z,26.3
2017-04-09T01:36:15.151Z,26.3
2017-04-09T01:37:15.433Z,26.3
2017-04-09T01:38:15.242Z,26.3
2017-04-09T01:39:16.475Z,26.3
2017-04-09T01:40:16.463Z,26.3
2017-04-09T01:41:15.405Z,26.3
2017-04-09T01:42:15.605Z,26.3
2017-04-09T01:43:16.923Z,26.3
2017-04-09T01:44:15.710Z,26.3
2017-04-09T01:45:15.672Z,26.3
2017-04-09T01:46:16.870Z,26.3
2017-04-09T01:47:15.898Z,26.3
2017-04-09T01:48:15.907Z,26.3
2017-04-09T01:49:17.339Z,26.3
2017-04-09T01:50:17.097Z,26.2
2017-04-09T01:51:15.952Z,26.3
2017-04-09T01:52:15.969Z,26.3
2017-04-09T01:53:17.145Z,26.3
2017-04-09T01:54:16.132Z,26.3
2017-04-09T01:55:17.541Z,26.3
2017-04-09T01:56:16.142Z,26.3
2017-04-09T01:57:17.299Z,26.3
2017-04-09T01:58:17.410Z,26.3
2017-04-09T01:59:16.354Z,26.3
2017-04-09T02:00:16.408Z,26.3
2017-04-09T02:01:17.849Z,26.3
2017-04-09T02:02:17.548Z,26.3
2017-04-09T02:03:16.616Z,26.3
2017-04-09T02:04:16.695Z,26.3
2017-04-09T02:05:16.702Z,26.3
2017-04-09T02:06:16.785Z,26.3
2017-04-09T02:07:17.082Z,26.3
2017-04-09T02:08:16.801Z,26.3
2017-04-09T02:09:17.961Z,26.3
2017-04-09T02:10:16.940Z,26.3
2017-04-09T02:11:17.104Z,26.3
2017-04-09T02:12:17.104Z,26.3
2017-04-09T02:13:18.445Z,26.3
2017-04-09T02:14:17.098Z,26.3
2017-04-09T02:15:18.312Z,26.3
2017-04-09T02:16:17.345Z,26.3
2017-04-09T02:17:18.398Z,26.3
2017-04-09T02:18:17.797Z,26.3
2017-04-09T02:19:18.678Z,26.3
2017-04-09T02:20:18.671Z,26.3
2017-04-09T02:21:18.704Z,26.3
2017-04-09T02:22:17.649Z,26.3
2017-04-09T02:23:17.741Z,26.3
2017-04-09T02:24:18.132Z,26.3
2017-04-09T02:25:18.963Z,26.3
2017-04-09T02:26:17.912Z,26.3
2017-04-09T02:27:19.078Z,26.3
2017-04-09T02:28:18.141Z,26.3
2017-04-09T02:29:19.244Z,26.3
2017-04-09T02:30:18.547Z,26.3
2017-04-09T02:31:07.895Z,26.2
2017-04-09T02:32:07.949Z,26.3
2017-04-09T02:33:06.889Z,26.3
2017-04-09T02:34:06.965Z,26.3
2017-04-09T02:35:08.110Z,26.3
2017-04-09T02:36:07.322Z,26.3
2017-04-09T02:37:08.215Z,26.3
2017-04-09T02:38:08.266Z,26.3
2017-04-09T02:39:07.283Z,26.3
2017-04-09T02:40:08.370Z,26.3
2017-04-09T02:41:07.343Z,26.3
2017-04-09T02:42:08.434Z,26.3
2017-04-09T02:43:07.481Z,26.3
2017-04-09T02:44:07.441Z,26.3
2017-04-09T02:45:07.534Z,26.3
2017-04-09T02:46:08.516Z,26.3
2017-04-09T02:47:07.480Z,26.3
2017-04-09T02:48:08.674Z,26.3
2017-04-09T02:49:07.669Z,26.3
2017-04-09T02:50:07.690Z,26.3
2017-04-09T02:51:07.759Z,26.3
2017-04-09T02:52:08.931Z,26.3
2017-04-09T02:53:07.933Z,26.3
2017-04-09T02:54:09.021Z,26.3
2017-04-09T02:55:07.947Z,26.3
2017-04-09T02:56:08.140Z,26.3
2017-04-09T02:57:09.102Z,26.3
2017-04-09T02:58:09.258Z,26.3
2017-04-09T02:59:08.190Z,26.3
2017-04-09T03:00:09.187Z,26.3
2017-04-09T03:01:08.180Z,26.3
2017-04-09T03:02:08.155Z,26.3
2017-04-09T03:03:09.245Z,26.3
2017-04-09T03:04:09.341Z,26.3
2017-04-09T03:05:08.304Z,26.3
2017-04-09T03:06:08.455Z,26.3
2017-04-09T03:07:09.592Z,26.3
2017-04-09T03:08:08.422Z,26.3
2017-04-09T03:09:09.539Z,26.3
2017-04-09T03:10:08.528Z,26.3
2017-04-09T03:11:08.632Z,26.3
2017-04-09T03:12:08.692Z,26.2
2017-04-09T03:13:08.726Z,26.2
2017-04-09T03:14:08.705Z,26.3
2017-04-09T03:15:09.831Z,26.3
2017-04-09T03:16:09.846Z,26.3
2017-04-09T03:17:08.880Z,26.2
2017-04-09T03:18:09.866Z,26.2
2017-04-09T03:19:09.884Z,26.3
2017-04-09T03:20:08.855Z,26.3
2017-04-09T03:21:10.020Z,26.3
2017-04-09T03:22:10.181Z,26.3
2017-04-09T03:23:09.100Z,26.3
2017-04-09T03:24:10.256Z,26.3
2017-04-09T03:25:10.254Z,26.2
2017-04-09T03:26:10.343Z,26.2
2017-04-09T03:27:09.309Z,26.2
2017-04-09T03:28:09.403Z,26.2
2017-04-09T03:29:10.468Z,26.2
2017-04-09T03:30:10.526Z,26.2
2017-04-09T03:31:09.444Z,26.2
2017-04-09T03:32:10.531Z,26.2
2017-04-09T03:33:09.483Z,26.2
2017-04-09T03:34:10.660Z,26.2
2017-04-09T03:35:09.733Z,26.2
2017-04-09T03:36:09.763Z,26.2
2017-04-09T03:37:10.794Z,26.2
2017-04-09T03:38:09.820Z,26.2
2017-04-09T03:39:10.870Z,26.2
2017-04-09T03:40:10.904Z,26.2
2017-04-09T03:41:09.903Z,26.2
2017-04-09T03:42:09.985Z,26.2
2017-04-09T03:43:10.097Z,26.2
2017-04-09T03:44:11.223Z,26.2
2017-04-09T03:45:11.209Z,26.3
2017-04-09T03:46:10.273Z,26.3
2017-04-09T03:47:11.332Z,26.2
2017-04-09T03:48:11.421Z,26.2
2017-04-09T03:49:10.402Z,26.2
2017-04-09T03:50:11.571Z,26.2
2017-04-09T03:51:10.625Z,26.2
2017-04-09T03:52:10.651Z,26.2
2017-04-09T03:53:10.585Z,26.2
2017-04-09T03:54:11.820Z,26.2
2017-04-09T03:55:11.786Z,26.2
2017-04-09T03:56:11.810Z,26.2
2017-04-09T03:57:10.843Z,26.2
2017-04-09T03:58:11.025Z,26.2
2017-04-09T03:59:12.181Z,26.2
2017-04-09T04:00:12.170Z,26.2
2017-04-09T04:01:12.300Z,26.2
2017-04-09T04:02:11.335Z,26.2
2017-04-09T04:03:11.421Z,26.2
2017-04-09T04:04:12.478Z,26.2
2017-04-09T04:05:11.531Z,26.2
2017-04-09T04:06:11.541Z,26.2
2017-04-09T04:07:11.515Z,26.2
2017-04-09T04:08:12.772Z,26.2
2017-04-09T04:09:12.696Z,26.2
2017-04-09T04:10:11.737Z,26.2
2017-04-09T04:11:11.743Z,26.2
2017-04-09T04:12:11.793Z,26.2
2017-04-09T04:13:12.785Z,26.2
2017-04-09T04:14:11.844Z,26.2
2017-04-09T04:15:11.915Z,26.2
2017-04-09T04:16:12.990Z,26.2
2017-04-09T04:17:13.065Z,26.2
2017-04-09T04:18:13.175Z,26.2
2017-04-09T04:19:13.182Z,26.2
2017-04-09T04:20:13.277Z,26.2
2017-04-09T04:21:12.248Z,26.2
2017-04-09T04:22:12.317Z,26.2
2017-04-09T04:23:12.488Z,26.2
2017-04-09T04:24:12.560Z,26.2
2017-04-09T04:25:12.629Z,26.2
2017-04-09T04:26:12.615Z,26.2
2017-04-09T04:27:13.756Z,26.2
2017-04-09T04:28:12.684Z,26.2
2017-04-09T04:29:12.798Z,26.2
2017-04-09T04:30:12.719Z,26.2
2017-04-09T04:31:12.789Z,26.2
2017-04-09T04:32:14.007Z,26.2
2017-04-09T04:33:12.907Z,26.2
2017-04-09T04:34:14.134Z,26.2
2017-04-09T04:35:14.210Z,26.2
2017-04-09T04:36:13.210Z,26.2
2017-04-09T04:37:14.373Z,26.2
2017-04-09T04:38:14.433Z,26.2
2017-04-09T04:39:14.712Z,26.2
2017-04-09T04:40:14.435Z,26.2
2017-04-09T04:41:14.527Z,26.2
2017-04-09T04:42:14.648Z,26.2
2017-04-09T04:43:13.675Z,26.2
2017-04-09T04:44:13.680Z,26.2
2017-04-09T04:45:14.915Z,26.2
2017-04-09T04:46:14.662Z,26.2
2017-04-09T04:47:13.738Z,26.2
2017-04-09T04:48:14.872Z,26.2
2017-04-09T04:49:14.940Z,26.2
2017-04-09T04:50:15.044Z,26.2
2017-04-09T04:51:15.226Z,26.2
2017-04-09T04:52:14.053Z,26.2
2017-04-09T04:53:15.129Z,26.2
2017-04-09T04:54:14.234Z,26.2
2017-04-09T04:55:15.268Z,26.2
2017-04-09T04:56:14.302Z,26.2
2017-04-09T04:57:14.598Z,26.2
2017-04-09T04:58:15.037Z,26.2
2017-04-09T04:59:14.368Z,26.2
2017-04-09T05:00:14.372Z,26.2
2017-04-09T05:01:15.519Z,26.2
2017-04-09T05:02:15.581Z,26.2
2017-04-09T05:03:14.968Z,26.2
2017-04-09T05:04:14.528Z,26.2
2017-04-09T05:05:14.633Z,26.2
2017-04-09T05:06:14.756Z,26.2
2017-04-09T05:07:14.841Z,26.2
2017-04-09T05:08:14.860Z,26.2
2017-04-09T05:09:15.202Z,26.2
2017-04-09T05:10:16.625Z,26.2
2017-04-09T05:11:15.693Z,26.2
2017-04-09T05:12:14.964Z,26.2
2017-04-09T05:13:16.155Z,26.2
2017-04-09T05:14:16.055Z,26.2
2017-04-09T05:15:16.450Z,26.2
2017-04-09T05:16:16.148Z,26.2
2017-04-09T05:17:16.263Z,26.2
2017-04-09T05:18:16.248Z,26.2
2017-04-09T05:19:15.315Z,26.2
2017-04-09T05:20:16.448Z,26.2
2017-04-09T05:21:15.597Z,26.2
2017-04-09T05:22:16.442Z,26.2
2017-04-09T05:23:15.424Z,26.1
2017-04-09T05:24:15.510Z,26.2
2017-04-09T05:25:15.586Z,26.2
2017-04-09T05:26:15.605Z,26.2
2017-04-09T05:27:16.021Z,26.1
2017-04-09T05:28:15.795Z,26.1
2017-04-09T05:29:15.716Z,26.1
2017-04-09T05:30:15.705Z,26.1
2017-04-09T05:31:15.932Z,26.1
2017-04-09T05:32:17.009Z,26.1
2017-04-09T05:33:17.276Z,26.1
2017-04-09T05:34:16.144Z,26.1
2017-04-09T05:35:16.140Z,26.1
2017-04-09T05:36:16.067Z,26.1
2017-04-09T05:37:16.168Z,26.1
2017-04-09T05:38:17.245Z,26.1
2017-04-09T05:39:17.513Z,26.1
2017-04-09T05:40:16.250Z,26.1
2017-04-09T05:41:16.328Z,26.1
2017-04-09T05:42:16.445Z,26
2017-04-09T05:43:16.351Z,26
2017-04-09T05:44:16.376Z,26
2017-04-09T05:45:16.837Z,26
2017-04-09T05:46:16.547Z,26
2017-04-09T05:47:17.706Z,26
2017-04-09T05:48:16.748Z,26
2017-04-09T05:49:17.898Z,26
2017-04-09T05:50:16.806Z,26
2017-04-09T05:51:18.252Z,26
2017-04-09T05:52:16.875Z,26
2017-04-09T05:53:17.109Z,26
2017-04-09T05:54:17.064Z,25.9
2017-04-09T05:55:17.147Z,25.9
2017-04-09T05:56:18.275Z,25.9
2017-04-09T05:57:17.545Z,25.9
2017-04-09T05:58:18.404Z,25.9
2017-04-09T05:59:17.333Z,25.9
2017-04-09T06:00:17.337Z,25.9
2017-04-09T06:01:17.476Z,25.9
2017-04-09T06:02:17.389Z,25.8
2017-04-09T06:03:18.848Z,25.8
2017-04-09T06:04:18.671Z,25.8
2017-04-09T06:05:17.568Z,25.7
2017-04-09T06:06:17.594Z,25.7
2017-04-09T06:07:17.698Z,25.7
2017-04-09T06:08:17.634Z,25.7
2017-04-09T06:09:17.988Z,25.7
2017-04-09T06:10:18.776Z,25.6
2017-04-09T06:11:17.750Z,25.6
2017-04-09T06:12:18.922Z,25.6
2017-04-09T06:13:17.874Z,25.6
2017-04-09T06:14:18.994Z,25.6
2017-04-09T06:15:19.327Z,25.6
2017-04-09T06:16:19.216Z,25.5
2017-04-09T06:17:18.126Z,25.5
2017-04-09T06:18:19.298Z,25.5
2017-04-09T06:19:18.267Z,25.4
2017-04-09T06:20:18.369Z,25.4
2017-04-09T06:21:18.569Z,25.4
2017-04-09T06:22:19.515Z,25.4
2017-04-09T06:23:18.389Z,25.4
2017-04-09T06:24:19.523Z,25.4
2017-04-09T06:25:19.607Z,25.3
2017-04-09T06:26:19.654Z,25.3
2017-04-09T06:27:18.909Z,25.3
2017-04-09T06:28:18.767Z,25.3
2017-04-09T06:29:18.764Z,25.3
2017-04-09T06:30:19.836Z,25.3
2017-04-09T06:31:18.922Z,25.3
2017-04-09T06:32:19.006Z,25.2
2017-04-09T06:33:20.397Z,25.2
2017-04-09T06:34:19.178Z,25.2
2017-04-09T06:35:19.181Z,25.2
2017-04-09T06:36:20.279Z,25.2
2017-04-09T06:37:19.251Z,25.2
2017-04-09T06:38:20.293Z,25.1
2017-04-09T06:39:20.594Z,25.1
2017-04-09T06:40:19.324Z,25.1
2017-04-09T06:41:19.281Z,25.1
2017-04-09T06:42:19.414Z,25.1
2017-04-09T06:43:19.478Z,25.1
2017-04-09T06:44:20.484Z,25.1
2017-04-09T06:45:20.832Z,25
2017-04-09T06:46:20.626Z,25
2017-04-09T06:47:19.660Z,25
2017-04-09T06:48:20.684Z,25
2017-04-09T06:49:19.654Z,25
2017-04-09T06:50:19.650Z,25
2017-04-09T06:51:19.955Z,25
2017-04-09T06:52:19.700Z,24.9
2017-04-09T06:53:19.857Z,24.9
2017-04-09T06:54:20.878Z,24.9
2017-04-09T06:55:21.438Z,24.9
2017-04-09T06:56:20.607Z,24.9
2017-04-09T06:57:21.335Z,24.9
2017-04-09T06:58:20.095Z,24.8
2017-04-09T06:59:20.158Z,24.8
2017-04-09T07:00:21.142Z,24.8
2017-04-09T07:01:21.231Z,24.8
2017-04-09T07:02:21.657Z,24.8
2017-04-09T07:03:21.799Z,24.7
2017-04-09T07:04:21.059Z,24.7
2017-04-09T07:05:20.509Z,24.7
2017-04-09T07:06:20.601Z,24.7
2017-04-09T07:07:21.594Z,24.7
2017-04-09T07:08:21.708Z,24.7
2017-04-09T07:09:22.015Z,24.7
2017-04-09T07:10:21.781Z,24.7
2017-04-09T07:11:20.877Z,24.6
2017-04-09T07:12:20.955Z,24.6
2017-04-09T07:13:22.133Z,24.6
2017-04-09T07:14:21.117Z,24.6
2017-04-09T07:15:22.425Z,24.6
2017-04-09T07:16:21.162Z,24.6
2017-04-09T07:17:21.315Z,24.6
2017-04-09T07:18:21.236Z,24.6
2017-04-09T07:19:21.319Z,24.6
2017-04-09T07:20:22.432Z,24.6
2017-04-09T07:21:21.727Z,24.5
2017-04-09T07:22:22.084Z,24.5
2017-04-09T07:23:22.580Z,24.5
2017-04-09T07:24:22.585Z,24.5
2017-04-09T07:25:21.509Z,24.4
2017-04-09T07:26:23.252Z,24.4
2017-04-09T07:27:23.023Z,24.4
2017-04-09T07:28:21.666Z,24.4
2017-04-09T07:29:21.831Z,24.4
2017-04-09T07:30:21.812Z,24.3
2017-04-09T07:31:21.734Z,24.3
2017-04-09T07:32:21.827Z,24.3
2017-04-09T07:33:23.332Z,24.3
2017-04-09T07:34:22.061Z,24.2
2017-04-09T07:35:22.058Z,24.2
2017-04-09T07:36:22.197Z,24.2
2017-04-09T07:37:23.334Z,24.2
2017-04-09T07:38:22.249Z,24.2
2017-04-09T07:39:22.619Z,24.1
2017-04-09T07:40:23.544Z,24.1
2017-04-09T07:41:22.499Z,24.1
2017-04-09T07:42:22.691Z,24.1
2017-04-09T07:43:23.699Z,24.1
2017-04-09T07:44:22.751Z,24
2017-04-09T07:45:24.267Z,24
2017-04-09T07:46:23.973Z,24
2017-04-09T07:47:22.907Z,24
2017-04-09T07:48:22.939Z,23.9
2017-04-09T07:49:23.006Z,24
2017-04-09T07:50:23.138Z,24
2017-04-09T07:51:24.393Z,24
2017-04-09T07:52:24.671Z,24.1
2017-04-09T07:53:24.236Z,24.2
2017-04-09T07:54:23.335Z,24.2
2017-04-09T07:55:24.313Z,24.2
2017-04-09T07:56:24.423Z,24.3
2017-04-09T07:57:24.773Z,24.3
2017-04-09T07:58:24.581Z,24.3
2017-04-09T07:59:24.603Z,24.4
2017-04-09T08:00:23.668Z,24.4
2017-04-09T08:01:24.722Z,24.4
2017-04-09T08:02:23.803Z,24.4
2017-04-09T08:03:25.108Z,24.4
2017-04-09T08:04:23.926Z,24.4
2017-04-09T08:05:23.995Z,24.4
2017-04-09T08:06:23.998Z,24.4
2017-04-09T08:07:24.018Z,24.4
2017-04-09T08:08:25.091Z,24.4
2017-04-09T08:09:24.341Z,24.4
2017-04-09T08:10:25.119Z,24.4
2017-04-09T08:11:25.197Z,24.5
2017-04-09T08:12:25.275Z,24.5
2017-04-09T08:13:24.228Z,24.5
2017-04-09T08:14:25.301Z,24.5
2017-04-09T08:15:25.668Z,24.5
2017-04-09T08:16:24.299Z,24.6
2017-04-09T08:17:24.505Z,24.6
2017-04-09T08:18:25.621Z,24.7
2017-04-09T08:19:24.620Z,24.7
2017-04-09T08:20:25.686Z,24.7
2017-04-09T08:21:26.016Z,24.7
2017-04-09T08:22:24.654Z,24.7
2017-04-09T08:23:25.822Z,24.7
2017-04-09T08:24:25.775Z,24.7
2017-04-09T08:25:24.854Z,24.7
2017-04-09T08:26:25.911Z,24.7
2017-04-09T08:27:26.193Z,24.7
2017-04-09T08:28:24.857Z,24.7
2017-04-09T08:29:26.034Z,24.7
2017-04-09T08:30:26.064Z,24.7
2017-04-09T08:31:25.151Z,24.7
2017-04-09T08:32:25.079Z,24.7
2017-04-09T08:33:25.374Z,24.7
2017-04-09T08:34:26.239Z,24.7
2017-04-09T08:35:26.354Z,24.7
2017-04-09T08:36:25.349Z,24.7
2017-04-09T08:37:26.490Z,24.7
2017-04-09T08:38:26.569Z,24.7
2017-04-09T08:39:25.787Z,24.8
2017-04-09T08:40:26.646Z,24.8
2017-04-09T08:41:25.692Z,24.8
2017-04-09T08:42:25.761Z,24.8
2017-04-09T08:43:25.752Z,24.8
2017-04-09T08:44:25.837Z,24.8
2017-04-09T08:45:27.269Z,24.8
2017-04-09T08:46:27.018Z,24.9
2017-04-09T08:47:27.084Z,24.9
2017-04-09T08:48:26.182Z,24.9
2017-04-09T08:49:26.217Z,24.9
2017-04-09T08:50:26.215Z,24.9
2017-04-09T08:51:27.631Z,24.9
2017-04-09T08:52:27.385Z,24.9
2017-04-09T08:53:27.459Z,24.9
2017-04-09T08:54:26.487Z,24.9
2017-04-09T08:55:27.640Z,24.9
2017-04-09T08:56:26.575Z,24.9
2017-04-09T08:57:26.881Z,25
2017-04-09T08:58:27.761Z,25
2017-04-09T08:59:27.883Z,25
2017-04-09T09:00:26.804Z,25
2017-04-09T09:01:26.906Z,25
2017-04-09T09:02:27.959Z,25
2017-04-09T09:03:28.249Z,25
2017-04-09T09:04:26.992Z,25
2017-04-09T09:05:26.932Z,25
2017-04-09T09:06:27.036Z,25
2017-04-09T09:07:27.134Z,25
2017-04-09T09:08:28.113Z,25
2017-04-09T09:09:28.448Z,25
2017-04-09T09:10:27.342Z,25
2017-04-09T09:11:28.387Z,25
2017-04-09T09:12:28.487Z,25
2017-04-09T09:13:28.564Z,25
2017-04-09T09:14:27.613Z,25
2017-04-09T09:15:28.879Z,25
2017-04-09T09:16:28.703Z,25
2017-04-09T09:17:28.657Z,25
2017-04-09T09:18:27.613Z,25
2017-04-09T09:19:27.754Z,25
2017-04-09T09:20:28.918Z,25
2017-04-09T09:21:29.225Z,25
2017-04-09T09:22:28.948Z,25
2017-04-09T09:23:27.923Z,25
2017-04-09T09:24:27.954Z,25
2017-04-09T09:25:28.942Z,25
2017-04-09T09:26:28.033Z,25
2017-04-09T09:27:29.393Z,25
2017-04-09T09:28:28.717Z,25
2017-04-09T09:29:28.144Z,25
2017-04-09T09:30:28.106Z,25
2017-04-09T09:31:28.102Z,25
2017-04-09T09:32:29.345Z,25
2017-04-09T09:33:28.640Z,25
2017-04-09T09:34:28.281Z,25
2017-04-09T09:35:29.453Z,25
2017-04-09T09:36:29.383Z,25
2017-04-09T09:37:28.349Z,25
2017-04-09T09:38:28.452Z,25
2017-04-09T09:39:28.838Z,25
2017-04-09T09:40:29.557Z,24.9
2017-04-09T09:41:28.617Z,24.9
2017-04-09T09:42:28.613Z,24.9
2017-04-09T09:43:29.687Z,24.9
2017-04-09T09:44:29.787Z,24.9
2017-04-09T09:45:30.054Z,24.9
2017-04-09T09:46:29.801Z,24.9
2017-04-09T09:47:29.928Z,24.9
2017-04-09T09:48:29.931Z,24.9
2017-04-09T09:49:30.005Z,24.9
2017-04-09T09:50:29.049Z,25
2017-04-09T09:51:29.322Z,24.9
2017-04-09T09:52:30.282Z,25
2017-04-09T09:53:30.313Z,24.9
2017-04-09T09:54:30.266Z,25
2017-04-09T09:55:30.382Z,25
2017-04-09T09:56:30.443Z,25
2017-04-09T09:57:29.735Z,25
2017-04-09T09:58:30.606Z,25
2017-04-09T09:59:29.645Z,25
2017-04-09T10:00:29.631Z,25
2017-04-09T10:01:30.621Z,24.9
2017-04-09T10:02:30.736Z,25
2017-04-09T10:03:29.964Z,25
2017-04-09T10:04:30.811Z,25
2017-04-09T10:05:29.701Z,25
2017-04-09T10:06:30.895Z,25
2017-04-09T10:07:30.987Z,25
2017-04-09T10:08:29.955Z,24.9
2017-04-09T10:09:31.288Z,25
2017-04-09T10:10:30.073Z,25
2017-04-09T10:11:30.001Z,24.9
2017-04-09T10:12:31.154Z,25
2017-04-09T10:13:30.116Z,25
2017-04-09T10:14:30.265Z,25
2017-04-09T10:15:31.542Z,25
2017-04-09T10:16:30.293Z,25
2017-04-09T10:17:31.358Z,25
2017-04-09T10:18:31.522Z,25
2017-04-09T10:19:30.472Z,24.9
2017-04-09T10:20:30.442Z,24.9
2017-04-09T10:21:30.766Z,24.9
2017-04-09T10:22:31.713Z,24.9
2017-04-09T10:23:31.731Z,24.9
2017-04-09T10:24:30.806Z,24.9
2017-04-09T10:25:31.889Z,24.9
2017-04-09T10:26:31.898Z,24.9
2017-04-09T10:27:32.241Z,24.9
2017-04-09T10:28:31.000Z,24.9
2017-04-09T10:29:31.984Z,24.9
2017-04-09T10:30:32.088Z,24.9
2017-04-09T10:31:31.010Z,24.9
2017-04-09T10:32:32.075Z,24.9
2017-04-09T10:33:31.412Z,24.9
2017-04-09T10:34:32.099Z,24.9
2017-04-09T10:35:32.180Z,24.9
2017-04-09T10:36:31.272Z,24.9
2017-04-09T10:37:31.305Z,24.9
2017-04-09T10:38:31.432Z,24.9
2017-04-09T10:39:32.724Z,24.9
2017-04-09T10:40:32.505Z,24.9
2017-04-09T10:41:31.432Z,24.9
2017-04-09T10:42:32.538Z,24.9
2017-04-09T10:43:32.629Z,24.9
2017-04-09T10:44:32.718Z,24.9
2017-04-09T10:45:33.042Z,24.9
2017-04-09T10:46:32.927Z,24.9
2017-04-09T10:47:31.891Z,24.9
2017-04-09T10:48:32.013Z,24.9
2017-04-09T10:49:31.939Z,24.9
2017-04-09T10:50:31.961Z,24.9
2017-04-09T10:51:32.347Z,24.9
2017-04-09T10:52:32.076Z,24.9
2017-04-09T10:53:32.137Z,24.9
2017-04-09T10:54:33.296Z,24.9
2017-04-09T10:55:33.383Z,24.9
2017-04-09T10:56:32.355Z,24.9
2017-04-09T10:57:33.713Z,24.9
2017-04-09T10:58:32.456Z,24.9
2017-04-09T10:59:32.375Z,24.9
2017-04-09T11:00:33.544Z,24.9
2017-04-09T11:01:32.583Z,24.9
2017-04-09T11:02:32.620Z,24.9
2017-04-09T11:03:32.927Z,24.9
2017-04-09T11:04:33.728Z,24.9
2017-04-09T11:05:33.873Z,24.9
2017-04-09T11:06:32.863Z,24.9
2017-04-09T11:07:38.265Z,24.9
2017-04-09T11:08:33.903Z,24.9
2017-04-09T11:09:33.276Z,24.9
2017-04-09T11:10:33.141Z,24.9
2017-04-09T11:11:34.280Z,24.9
2017-04-09T11:12:34.259Z,24.9
2017-04-09T11:13:33.188Z,24.9
2017-04-09T11:14:33.277Z,24.9
2017-04-09T11:15:33.715Z,24.9
2017-04-09T11:16:33.433Z,24.9
2017-04-09T11:17:33.531Z,24.9
2017-04-09T11:18:34.526Z,24.9
2017-04-09T11:19:33.617Z,24.8
2017-04-09T11:20:33.596Z,24.8
2017-04-09T11:21:33.857Z,24.8
2017-04-09T11:22:33.649Z,24.8
2017-04-09T11:23:34.728Z,24.8
2017-04-09T11:24:33.720Z,24.8
2017-04-09T11:25:33.884Z,24.8
2017-04-09T11:26:34.914Z,24.8
2017-04-09T11:27:34.227Z,24.8
2017-04-09T11:28:34.015Z,24.8
2017-04-09T11:29:33.979Z,24.8
2017-04-09T11:30:34.016Z,24.9
2017-04-09T11:31:34.042Z,24.9
2017-04-09T11:32:35.172Z,24.9
2017-04-09T11:33:34.423Z,24.9
2017-04-09T11:34:34.108Z,24.9
2017-04-09T11:35:34.853Z,24.9
2017-04-09T11:36:35.309Z,24.9
2017-04-09T11:37:35.388Z,24.9
2017-04-09T11:38:39.810Z,24.9
2017-04-09T11:39:34.291Z,24.9
2017-04-09T11:40:34.300Z,24.9
2017-04-09T11:41:34.472Z,24.9
2017-04-09T11:42:35.201Z,24.9
2017-04-09T11:43:34.430Z,24.9
2017-04-09T11:44:35.834Z,24.9
2017-04-09T11:45:34.618Z,24.9
2017-04-09T11:46:34.641Z,24.9
2017-04-09T11:47:35.704Z,24.9
2017-04-09T11:48:34.579Z,24.9
2017-04-09T11:49:34.587Z,24.9
2017-04-09T11:50:35.005Z,24.9
2017-04-09T11:51:34.637Z,24.9
2017-04-09T11:52:35.839Z,24.9
2017-04-09T11:53:35.789Z,24.9
2017-04-09T11:54:35.961Z,24.9
2017-04-09T11:55:35.919Z,24.9
2017-04-09T11:56:35.256Z,24.9
2017-04-09T11:57:35.990Z,24.9
2017-04-09T11:58:36.075Z,24.9
2017-04-09T11:59:36.078Z,24.9
2017-04-09T12:00:36.145Z,24.9
2017-04-09T12:01:35.113Z,24.9
2017-04-09T12:02:36.626Z,24.9
2017-04-09T12:03:35.292Z,24.9
2017-04-09T12:04:36.461Z,24.9
2017-04-09T12:05:35.307Z,24.9
2017-04-09T12:06:36.495Z,24.9
2017-04-09T12:07:36.644Z,24.9
2017-04-09T12:08:36.886Z,24.9
2017-04-09T12:09:35.545Z,24.9
2017-04-09T12:10:36.629Z,24.9
2017-04-09T12:11:35.603Z,24.9
2017-04-09T12:12:35.684Z,24.9
2017-04-09T12:13:36.836Z,24.9
2017-04-09T12:14:36.069Z,24.9
2017-04-09T12:15:36.928Z,24.9
2017-04-09T12:16:35.916Z,24.9
2017-04-09T12:17:35.834Z,24.9
2017-04-09T12:18:37.036Z,24.9
2017-04-09T12:19:36.831Z,24.9
2017-04-09T12:20:37.387Z,24.9
2017-04-09T12:21:36.189Z,24.9
2017-04-09T12:22:36.147Z,24.9
2017-04-09T12:23:36.219Z,24.9
2017-04-09T12:24:37.336Z,24.9
2017-04-09T12:25:37.478Z,24.9
2017-04-09T12:26:37.856Z,24.9
2017-04-09T12:27:36.476Z,24.9
2017-04-09T12:28:37.626Z,24.9
2017-04-09T12:29:36.645Z,24.9
2017-04-09T12:30:37.654Z,24.9
2017-04-09T12:31:37.709Z,24.9
2017-04-09T12:32:38.090Z,24.9
2017-04-09T12:33:37.894Z,24.9
2017-04-09T12:34:37.936Z,24.9
2017-04-09T12:35:36.857Z,24.9
2017-04-09T12:36:37.025Z,24.9
2017-04-09T12:37:38.070Z,24.9
2017-04-09T12:38:38.443Z,24.9
2017-04-09T12:39:38.265Z,24.9
2017-04-09T12:40:38.352Z,24.9
2017-04-09T12:41:38.356Z,24.9
2017-04-09T12:42:38.360Z,24.9
2017-04-09T12:43:38.382Z,24.9
2017-04-09T12:44:37.696Z,24.9
2017-04-09T12:45:38.471Z,24.9
2017-04-09T12:46:38.400Z,24.9
2017-04-09T12:47:38.446Z,24.9
2017-04-09T12:48:38.603Z,24.9
2017-04-09T12:49:37.558Z,24.9
2017-04-09T12:50:38.898Z,24.9
2017-04-09T12:51:38.618Z,24.9
2017-04-09T12:52:38.714Z,24.9
2017-04-09T12:53:37.747Z,24.9
2017-04-09T12:54:38.744Z,24.9
2017-04-09T12:55:37.738Z,24.9
2017-04-09T12:56:38.092Z,24.9
2017-04-09T12:57:39.427Z,24.9
2017-04-09T12:58:37.852Z,24.9
2017-04-09T12:59:39.056Z,24.9
2017-04-09T13:00:39.065Z,24.9
2017-04-09T13:01:39.207Z,24.9
2017-04-09T13:02:39.573Z,24.9
2017-04-09T13:03:38.183Z,24.9
2017-04-09T13:04:39.253Z,24.9
2017-04-09T13:05:39.510Z,24.9
2017-04-09T13:06:38.272Z,24.8
2017-04-09T13:07:38.360Z,24.8
2017-04-09T13:08:38.755Z,24.8
2017-04-09T13:09:38.376Z,24.8
2017-04-09T13:10:39.556Z,24.8
2017-04-09T13:11:38.608Z,24.8
2017-04-09T13:12:38.552Z,24.8
2017-04-09T13:13:38.559Z,24.8
2017-04-09T13:14:39.948Z,24.8
2017-04-09T13:15:38.736Z,24.8
2017-04-09T13:16:38.719Z,24.8
2017-04-09T13:17:39.879Z,24.8
2017-04-09T13:18:39.823Z,24.8
2017-04-09T13:19:38.843Z,24.8
2017-04-09T13:20:40.311Z,24.8
2017-04-09T13:21:40.034Z,24.8
2017-04-09T13:22:40.658Z,24.8
2017-04-09T13:23:40.199Z,24.8
2017-04-09T13:24:39.176Z,24.8